Home > Products > Valid Products > MTR

000
SAUS45 KGGW 030649
MTRJDN
METAR KJDN 030648Z AUTO 00000KT 10/08 A2969 RMK AO1 SLP050 T01000078
402390083





000
SAUS45 KGGW 030549
MTRJDN
METAR KJDN 030548Z AUTO 06004KT 12/07 A2970 RMK AO1 SLP052 T01170067
10228 20111 58007





000
SAUS45 KGGW 030449
MTRJDN
METAR KJDN 030448Z AUTO 11003KT 12/07 A2971 RMK AO1 SLP055 T01220072





000
SAUS45 KGGW 030349
MTRJDN
METAR KJDN 030348Z AUTO 00000KT 13/07 A2972 RMK AO1 SLP061 T01330072





000
SAUS45 KGGW 030249
MTRJDN
METAR KJDN 030248Z AUTO 04003KT 16/07 A2972 RMK AO1 SLP061 T01560072
55004





000
SAUS45 KGGW 030149
MTRJDN
METAR KJDN 030148Z AUTO 05008KT 17/07 A2971 RMK AO1 SLP060 T01670072





000
SAUS45 KGGW 030050
MTRJDN
METAR KJDN 030048Z AUTO 09007KT 22/05 A2972 RMK AO1 SLP061 T02220050





000
SAUS45 KGGW 022349
MTRJDN
METAR KJDN 022348Z AUTO 12005KT 23/04 A2974 RMK AO1 SLP065 T02280039
10239 20206 56022





000
SAUS45 KGGW 022249
MTRJDN
METAR KJDN 022248Z AUTO 00000KT 24/04 A2976 RMK AO1 SLP070 T02390044





000
SAUS45 KGGW 022149
MTRJDN
METAR KJDN 022148Z AUTO 27007KT 22/03 A2978 RMK AO1 SLP079 T02220033





000
SAUS45 KGGW 022049
MTRJDN
METAR KJDN 022048Z AUTO 27004KT 22/04 A2981 RMK AO1 SLP088 T02170044
58013





000
SAUS45 KGGW 021949
MTRJDN
METAR KJDN 021948Z AUTO 30008KT 21/04 A2982 RMK AO1 SLP094 T02110039





000
SAUS45 KGGW 021849
MTRJDN
METAR KJDN 021848Z AUTO 30009KT 21/03 A2983 RMK AO1 SLP098 T02110033





000
SAUS45 KGGW 021749
MTRJDN
METAR KJDN 021748Z AUTO 29008KT 21/04 A2985 RMK AO1 SLP100 T02110044
10217 20083 58006





000
SAUS45 KGGW 021649
MTRJDN
METAR KJDN 021648Z AUTO 27011KT 21/04 A2986 RMK AO1 SLP105 T02060044





000
SAUS45 KGGW 021549
MTRJDN
METAR KJDN 021548Z AUTO 28010KT 19/06 A2986 RMK AO1 SLP105 T01890061





000
SAUS45 KGGW 021349
MTRJDN
METAR KJDN 021348Z AUTO 29005KT 12/07 A2986 RMK AO1 SLP111 T01170072





000
SAUS45 KGGW 021249
MTRJDN
METAR KJDN 021248Z AUTO 27005KT 08/06 A2986 RMK AO1 SLP111 T00830061





000
SAUS45 KGGW 021149
MTRJDN
METAR KJDN 021148Z AUTO 30005KT 09/07 A2985 RMK AO1 SLP104 T00890067
10156 20089 50001





000
SAUS45 KGGW 021049
MTRJDN
METAR KJDN 021048Z AUTO 27005KT 11/07 A2985 RMK AO1 SLP103 T01060067





000
SAUS45 KGGW 020949
MTRJDN
METAR KJDN 020948Z AUTO 27006KT 11/07 A2985 RMK AO1 SLP102 T01110067





000
SAUS45 KGGW 020849
MTRJDN
METAR KJDN 020848Z AUTO 29007KT 11/07 A2984 RMK AO1 SLP101 T01110067
58002





000
SAUS45 KGGW 020749
MTRJDN
METAR KJDN 020748Z AUTO 31008KT 12/07 A2985 RMK AO1 SLP103 T01170072





000
SAUS45 KGGW 020649
MTRJDN
METAR KJDN 020648Z AUTO 29005KT 12/07 A2985 RMK AO1 SLP103 T01220072
402280094





000
SAUS45 KGGW 020549
MTRJDN
METAR KJDN 020548Z AUTO VRB03KT 15/07 A2985 RMK AO1 SLP103 T01500067
10228 20150 58004





000
SAUS45 KGGW 020449
MTRJDN
METAR KJDN 020448Z AUTO 26004KT 15/08 A2986 RMK AO1 SLP106 T01500078





000
SAUS45 KGGW 020349
MTRJDN
METAR KJDN 020348Z AUTO 00000KT 16/08 A2986 RMK AO1 SLP109 T01610078





000
SAUS45 KGGW 020349
MTRJDN
METAR KJDN 020348Z AUTO 00000KT 16/08 A2986 RMK AO1 SLP109 T01610078





000
SAUS45 KGGW 020249
MTRJDN
METAR KJDN 020248Z AUTO 25004KT 16/07 A2986 RMK AO1 SLP111 T01610072
53001





000
SAUS45 KGGW 020149
MTRJDN
METAR KJDN 020148Z AUTO 00000KT 17/08 A2986 RMK AO1 SLP110 T01670083





000
SAUS45 KGGW 020049
MTRJDN
METAR KJDN 020048Z AUTO 28007KT 19/06 A2986 RMK AO1 SLP109 T01940056





000
SAUS45 KGGW 012349
MTRJDN
METAR KJDN 012348Z AUTO 27006KT 22/05 A2986 RMK AO1 SLP108 T02220050
10228 20194 56004





000
SAUS45 KGGW 012249
MTRJDN
METAR KJDN 012248Z AUTO 31007KT 22/06 A2986 RMK AO1 SLP108 T02220061





000
SAUS45 KGGW 012149
MTRJDN
METAR KJDN 012148Z AUTO 29009G18KT 23/06 A2987 RMK AO1 SLP110
T02280061





000
SAUS45 KGGW 012049
MTRJDN
METAR KJDN 012048Z AUTO 31010KT 22/06 A2987 RMK AO1 SLP111 T02220056
56008





000
SAUS45 KGGW 011949
MTRJDN
METAR KJDN 011948Z AUTO 29008KT 21/07 A2988 RMK AO1 SLP113 T02110067





000
SAUS45 KGGW 011849
MTRJDN
METAR KJDN 011848Z AUTO 31007KT 21/07 A2989 RMK AO1 SLP117 T02060067





000
SAUS45 KGGW 011749
MTRJDN
METAR KJDN 011748Z AUTO 34006KT 19/07 A2990 RMK AO1 SLP121 T01940067
10200 20094 50000





000
SAUS45 KGGW 011649
MTRJDN
METAR KJDN 011648Z AUTO 30007KT 18/08 A2991 RMK AO1 SLP124 T01830078





000
SAUS45 KGGW 011549
MTRJDN
METAR KJDN 011548Z AUTO 29008KT 16/08 A2990 RMK AO1 SLP124 T01610078





000
SAUS45 KGGW 011449
MTRJDN
METAR KJDN 011448Z AUTO 26007KT 14/08 A2990 RMK AO1 SLP123 T01390078
51009





000
SAUS45 KGGW 011349
MTRJDN
METAR KJDN 011348Z AUTO 00000KT 12/09 A2989 RMK AO1 SLP123 T01170094





000
SAUS45 KGGW 011249
MTRJDN
METAR KJDN 011248Z AUTO 00000KT 10/08 A2988 RMK AO1 SLP116 T01000083





000
SAUS45 KGGW 011149
MTRJDN
METAR KJDN 011148Z AUTO 29005KT 09/08 A2987 RMK AO1 SLP111 T00940083
10139 20094 53003





000
SAUS45 KGGW 011049
MTRJDN
METAR KJDN 011048Z AUTO 31007KT 10/09 A2987 RMK AO1 SLP110 T01000089





000
SAUS45 KGGW 010949
MTRJDN
METAR KJDN 010948Z AUTO 29003KT 10/08 A2986 RMK AO1 SLP106 T01000083





000
SAUS45 KGGW 010849
MTRJDN
METAR KJDN 010848Z AUTO 29006KT 12/09 A2986 RMK AO1 SLP106 T01170089
53009





000
SAUS45 KGGW 010749
MTRJDN
METAR KJDN 010748Z AUTO 28005KT 13/09 A2985 RMK AO1 SLP100 T01280089





000
SAUS45 KGGW 010649
MTRJDN
METAR KJDN 010648Z AUTO 29006KT 13/10 A2984 RMK AO1 SLP098 T01330100
402390117





000
SAUS45 KGGW 010549
MTRJDN
METAR KJDN 010548Z AUTO 30005KT 14/09 A2983 RMK AO1 SLP096 T01390094
10228 20122 51007





000
SAUS45 KGGW 010449
MTRJDN
METAR KJDN 010448Z AUTO 28006KT 13/09 A2982 RMK AO1 SLP095 T01330094





000
SAUS45 KGGW 010349
MTRJDN
METAR KJDN 010348Z AUTO 29008KT 14/09 A2981 RMK AO1 SLP093 T01390089





000
SAUS45 KGGW 010249
MTRJDN
METAR KJDN 010248Z AUTO 30007KT 16/09 A2981 RMK AO1 SLP090 T01560089
53009





000
SAUS45 KGGW 010149
MTRJDN
METAR KJDN 010148Z AUTO 30003KT 17/09 A2979 RMK AO1 SLP083 T01670094





000
SAUS45 KGGW 010049
MTRJDN
METAR KJDN 010048Z AUTO 29010KT 22/07 A2978 RMK AO1 SLP078 T02220072





000
SAUS45 KGGW 312349
MTRJDN
METAR KJDN 312348Z AUTO 27013KT 23/06 A2978 RMK AO1 SLP076 T02280056
10239 20206 55000





000
SAUS45 KGGW 312249
MTRJDN
METAR KJDN 312248Z AUTO 30011G19KT 23/05 A2977 RMK AO1 SLP073
T02330050





000
SAUS45 KGGW 312149
MTRJDN
METAR KJDN 312148Z AUTO 29016G19KT 23/05 A2977 RMK AO1 SLP073
T02280050





000
SAUS45 KGGW 312049
MTRJDN
METAR KJDN 312048Z AUTO 29009G16KT 23/07 A2978 RMK AO1 SLP075
T02280067 58003





000
SAUS45 KGGW 311950
MTRJDN
METAR KJDN 311948Z AUTO 31009G18KT 22/07 A2979 RMK AO1 SLP078
T02220072





000
SAUS45 KGGW 311852
MTRJDN
METAR KJDN 311848Z AUTO 31012KT 21/07 A2979 RMK A
NO CARRIER

RING

CONNECT 1200

BOIMTRSNT ALL
TTAA00 KSNT 311851
METAR KSNT 311851Z AUTO 02007KT 16/02 A3009 RMK AO1 SLP118 T01560022





000
SAUS45 KGGW 311749
MTRJDN
METAR KJDN 311748Z AUTO 32007KT 21/08 A2979 RMK AO1 SLP081 T02060083
10206 20117 51005





000
SAUS45 KGGW 311649
MTRJDN
METAR KJDN 311648Z AUTO 31010KT 19/09 A2979 RMK AO1 SLP082 T01890089





000
SAUS45 KGGW 311549
MTRJDN
METAR KJDN 311548Z AUTO 34010KT 17/11 A2978 RMK AO1 SLP079 T01720106





000
SAUS45 KGGW 311449
MTRJDN
METAR KJDN 311448Z AUTO 32006KT 16/13 A2977 RMK AO1 SLP078 T01560128
53017





000
SAUS45 KGGW 311349
MTRJDN
METAR KJDN 311348Z AUTO 26005KT 14/12 A2975 RMK AO1 SLP070 T01390122





000
SAUS45 KGGW 311249
MTRJDN
METAR KJDN 311248Z AUTO 00000KT 12/12 A2974 RMK AO1 SLP065 T01220117





000
SAUS45 KGGW 311149
MTRJDN
METAR KJDN 311148Z AUTO 28009KT 13/12 A2972 RMK AO1 SLP058 70003
T01280117 10144 20122 53003





000
SAUS45 KGGW 311049
MTRJDN
METAR KJDN 311048Z AUTO 29007KT 13/12 A2970 RMK AO1 SLP052 T01330122





000
SAUS45 KGGW 310949
MTRJDN
METAR KJDN 310948Z AUTO 28007KT 13/12 A2971 RMK AO1 SLP052 T01330122





000
SAUS45 KGGW 310850
MTRJDN
METAR KJDN 310848Z AUTO 28005KT 13/12 A2971 RMK AO1 SLP055 T01330122
58004





000
SAUS45 KGGW 310749
MTRJDN
METAR KJDN 310748Z AUTO 26003KT 14/12 A2971 RMK AO1 SLP056 T01390122





    US Dept of Commerce
    National Oceanic and Atmospheric Administration
    National Weather Service
    1325 East West Highway
    Silver Spring, MD 20910
    Page Author: NWS Internet Services Team
Disclaimer
Information Quality
Credits
Glossary
Privacy Policy
Freedom of Information Act (FOIA)
About Us
Career Opportunities